Time;durP1;ratioP1;P1;durP2;ratioP2;P2;SDS_P1;SDS_P2;PMS_P1;PMS_P2;Temp;Humidity;BMP_temperature;BMP_pressure;BME280_temperature;BME280_humidity;BME280_pressure;Samples;Min_cycle;Max_cycle;Signal;HPM_P1;HPM_P2
2022/11/15 00:00:51;;;;;;;64.55;44.88;;;;;;;8.54;76.17;101551.89;1679499;83;21768;-87
2022/11/15 00:03:20;;;;;;;66.45;45.03;;;;;;;8.58;76.19;101552.01;1696734;83;21046;-87
2022/11/15 00:05:47;;;;;;;62.10;43.10;;;;;;;8.58;76.13;101551.63;1688273;83;22824;-87
2022/11/15 00:08:13;;;;;;;67.92;45.20;;;;;;;8.61;76.17;101550.84;1658604;83;21025;-87
2022/11/15 00:10:40;;;;;;;69.95;46.15;;;;;;;8.63;76.10;101546.56;1691496;82;21940;-87
2022/11/15 00:13:10;;;;;;;71.65;47.80;;;;;;;8.56;75.94;101542.78;1695480;82;39471;-87
2022/11/15 00:15:41;;;;;;;76.40;49.40;;;;;;;8.54;76.03;101542.70;1721391;82;21039;-87
2022/11/15 00:18:12;;;;;;;73.50;47.40;;;;;;;8.53;76.11;101540.89;1723659;82;23132;-87
2022/11/15 00:20:39;;;;;;;77.62;50.03;;;;;;;8.53;76.10;101540.89;1685638;83;21012;-87
2022/11/15 00:23:06;;;;;;;68.75;47.23;;;;;;;8.52;76.14;101530.33;1722430;82;20997;-87
2022/11/15 00:25:32;;;;;;;71.42;47.00;;;;;;;8.48;76.07;101526.66;1702072;81;21634;-86
2022/11/15 00:27:59;;;;;;;74.85;49.73;;;;;;;8.47;76.12;101524.87;1707273;81;21030;-87
2022/11/15 00:30:26;;;;;;;73.20;49.15;;;;;;;8.48;76.21;101523.14;1736403;82;21728;-87
2022/11/15 00:32:53;;;;;;;78.85;48.55;;;;;;;8.48;76.23;101521.41;1733539;81;21105;-88
2022/11/15 00:35:20;;;;;;;78.00;47.27;;;;;;;8.51;76.28;101531.17;1732019;82;21027;-87
2022/11/15 00:37:47;;;;;;;78.62;47.90;;;;;;;8.52;76.31;101527.31;1730420;82;21819;-87
2022/11/15 00:40:14;;;;;;;73.83;46.50;;;;;;;8.53;76.26;101532.13;1733862;81;21055;-87
2022/11/15 00:42:41;;;;;;;74.47;48.40;;;;;;;8.53;76.27;101526.88;1718310;82;22800;-87
2022/11/15 00:45:09;;;;;;;69.85;45.80;;;;;;;8.50;76.19;101526.34;1683275;82;21031;-87
2022/11/15 00:47:35;;;;;;;78.05;47.35;;;;;;;8.50;76.26;101520.17;1716107;81;21024;-87
2022/11/15 00:50:02;;;;;;;76.53;46.88;;;;;;;8.50;76.21;101525.03;1718510;82;21011;-86
2022/11/15 00:52:29;;;;;;;73.30;48.08;;;;;;;8.47;76.28;101520.05;1725133;82;21038;-87
2022/11/15 00:54:56;;;;;;;77.32;47.65;;;;;;;8.48;76.36;101521.41;1733715;82;21841;-87
2022/11/15 00:57:22;;;;;;;77.25;49.63;;;;;;;8.47;76.34;101518.74;1728064;82;21067;-87
2022/11/15 00:59:49;;;;;;;76.30;48.98;;;;;;;8.45;76.31;101516.47;1724156;82;21127;-87
2022/11/15 01:02:16;;;;;;;78.72;50.12;;;;;;;8.42;76.30;101514.58;1716214;82;21040;-87
2022/11/15 01:04:42;;;;;;;81.72;49.75;;;;;;;8.43;76.36;101512.45;1712291;81;21039;-87
2022/11/15 01:07:09;;;;;;;76.42;47.50;;;;;;;8.42;76.37;101509.75;1696894;82;21731;-88
2022/11/15 01:09:36;;;;;;;74.90;47.95;;;;;;;8.41;76.44;101501.34;1700629;82;21818;-87
2022/11/15 01:12:03;;;;;;;79.70;47.15;;;;;;;8.39;76.40;101505.24;1699229;81;21975;-87
2022/11/15 01:14:29;;;;;;;70.03;46.15;;;;;;;8.36;76.31;101498.53;1700062;81;21221;-87
2022/11/15 01:16:56;;;;;;;78.35;47.05;;;;;;;8.30;76.40;101492.59;1699725;81;21848;-87
2022/11/15 01:19:23;;;;;;;78.50;48.87;;;;;;;8.29;76.45;101501.27;1701099;81;21718;-87
2022/11/15 01:21:50;;;;;;;83.95;51.28;;;;;;;8.32;76.57;101496.17;1734670;82;20975;-87
2022/11/15 01:24:17;;;;;;;79.72;49.48;;;;;;;8.34;76.62;101493.20;1730089;82;20963;-87
2022/11/15 01:26:43;;;;;;;85.72;51.75;;;;;;;8.34;76.62;101482.72;1704164;83;20994;-87
2022/11/15 01:29:10;;;;;;;87.92;52.38;;;;;;;8.38;76.68;101482.02;1728782;82;21067;-87
2022/11/15 01:31:37;;;;;;;94.95;55.43;;;;;;;8.42;76.71;101475.65;1719943;82;21677;-87
2022/11/15 01:34:03;;;;;;;93.82;54.98;;;;;;;8.44;76.71;101467.43;1717239;81;21816;-87
2022/11/15 01:36:30;;;;;;;84.13;51.33;;;;;;;8.42;76.57;101459.48;1701056;81;21015;-87
2022/11/15 01:38:57;;;;;;;98.20;57.60;;;;;;;8.43;76.67;101460.37;1741336;82;20984;-86
2022/11/15 01:41:30;;;;;;;94.77;56.68;;;;;;;8.43;76.59;101456.44;1707477;83;21017;-87
2022/11/15 01:44:18;;;;;;;93.25;56.35;;;;;;;8.41;76.69;101453.73;1678575;82;21913;-87
2022/11/15 01:46:47;;;;;;;90.83;54.03;;;;;;;8.43;76.71;101453.42;1696289;83;20970;-87
2022/11/15 01:49:17;;;;;;;89.97;53.73;;;;;;;8.43;76.70;101444.63;1703724;81;20984;-87
2022/11/15 01:51:43;;;;;;;90.65;53.50;;;;;;;8.38;76.62;101438.73;1702808;81;21473;-87
2022/11/15 01:54:13;;;;;;;96.20;55.48;;;;;;;8.40;76.76;101445.80;1722102;82;21541;-87
2022/11/15 01:56:48;;;;;;;94.67;54.18;;;;;;;8.40;76.73;101440.13;1707551;81;22043;-87
2022/11/15 01:59:15;;;;;;;87.65;53.78;;;;;;;8.41;76.73;101435.77;1676407;83;21044;-87
2022/11/15 02:01:41;;;;;;;88.35;53.35;;;;;;;8.39;76.69;101437.03;1707003;80;21202;-87
2022/11/15 02:04:23;;;;;;;90.57;53.52;;;;;;;8.41;76.74;101425.27;1768833;80;21018;-87
2022/11/15 02:06:50;;;;;;;89.90;52.15;;;;;;;8.41;76.75;101423.57;1741251;80;21038;-87
2022/11/15 02:12:05;;;;;;;92.15;53.85;;;;;;;8.44;76.74;101425.45;1763226;79;21010;-87
2022/11/15 02:14:32;;;;;;;97.62;56.15;;;;;;;8.45;76.69;101411.52;1768414;80;21089;-87
2022/11/15 02:17:28;;;;;;;91.47;54.10;;;;;;;8.44;76.78;101411.02;1779408;80;21587;-87
2022/11/15 02:20:36;;;;;;;93.22;55.23;;;;;;;8.45;76.76;101404.97;1777744;79;21022;-87
2022/11/15 02:23:32;;;;;;;101.20;54.93;;;;;;;8.45;76.72;101399.72;1770780;80;21760;-87
2022/11/15 02:26:34;;;;;;;101.95;55.10;;;;;;;8.42;76.75;101404.39;1770089;79;21002;-87
2022/11/15 02:29:14;;;;;;;98.55;54.25;;;;;;;8.41;76.75;101395.10;1755542;80;21051;-87
2022/11/15 02:32:21;;;;;;;101.18;55.63;;;;;;;8.40;76.73;101395.95;1745438;80;22058;-87
2022/11/15 02:34:59;;;;;;;98.40;55.25;;;;;;;8.37;76.70;101394.98;1774879;80;20975;-87
2022/11/15 02:37:49;;;;;;;96.20;53.80;;;;;;;8.35;76.75;101390.09;1781531;79;22496;-87
2022/11/15 02:40:51;;;;;;;99.45;54.53;;;;;;;8.34;76.73;101386.08;1777944;80;21530;-87
2022/11/15 02:47:12;;;;;;;95.05;50.78;;;;;;;8.35;76.73;101390.48;1765244;80;21011;-87
2022/11/15 02:48:55;;;;;;;93.03;52.03;;;;;;;8.33;76.78;101390.44;1776291;80;21026;-87
2022/11/15 02:51:22;;;;;;;94.67;53.55;;;;;;;8.29;76.71;101383.23;1773735;80;22539;-87
2022/11/15 02:53:49;;;;;;;93.25;53.95;;;;;;;8.29;76.74;101384.55;1777240;79;21829;-87
2022/11/15 02:56:15;;;;;;;100.22;54.95;;;;;;;8.25;76.74;101376.07;1772807;79;21920;-86
2022/11/15 02:59:16;;;;;;;96.57;53.40;;;;;;;8.25;76.79;101381.31;1778882;80;21768;-87
2022/11/15 03:02:06;;;;;;;91.22;51.92;;;;;;;8.24;76.83;101374.30;1774700;79;20915;-86
2022/11/15 03:05:13;;;;;;;92.67;50.33;;;;;;;8.21;76.74;101373.26;1733506;81;21750;-87
2022/11/15 03:08:12;;;;;;;86.12;48.98;;;;;;;8.18;76.80;101380.55;1735243;81;21007;-87
2022/11/15 03:11:05;;;;;;;83.12;48.90;;;;;;;8.16;76.82;101371.33;1733610;80;21013;-87
2022/11/15 03:14:06;;;;;;;91.82;50.28;;;;;;;8.14;76.83;101370.77;1771024;80;21043;-87
2022/11/15 03:16:47;;;;;;;89.47;49.05;;;;;;;8.08;76.72;101366.56;1771393;80;21012;-87
2022/11/15 03:19:47;;;;;;;89.95;49.00;;;;;;;8.03;76.78;101358.47;1731960;81;22199;-87
2022/11/15 03:22:19;;;;;;;98.58;52.67;;;;;;;7.98;76.82;101354.34;1701692;82;20976;-87
2022/11/15 03:24:47;;;;;;;93.33;50.50;;;;;;;7.91;76.77;101352.27;1733418;81;21045;-87
2022/11/15 03:27:17;;;;;;;82.62;45.88;;;;;;;7.88;76.97;101346.91;1769983;80;20986;-87
2022/11/15 03:29:49;;;;;;;85.38;45.73;;;;;;;7.88;77.02;101349.53;1740193;80;20991;-87
2022/11/15 03:32:22;;;;;;;86.02;47.43;;;;;;;7.85;76.94;101349.38;1731260;81;22980;-87
2022/11/15 03:35:02;;;;;;;88.75;46.85;;;;;;;7.79;76.87;101349.11;1737471;81;21105;-87
2022/11/15 03:37:42;;;;;;;88.78;47.05;;;;;;;7.71;77.00;101349.15;1733457;81;21583;-87
2022/11/15 03:40:09;;;;;;;92.05;49.83;;;;;;;7.71;77.17;101351.34;1735424;81;21709;-87
2022/11/15 03:42:51;;;;;;;91.87;49.40;;;;;;;7.70;77.22;101353.50;1772984;80;21024;-87
2022/11/15 03:45:23;;;;;;;88.72;46.88;;;;;;;7.64;77.21;101350.61;1767138;79;22053;-87
2022/11/15 03:47:53;;;;;;;84.05;47.03;;;;;;;7.62;77.32;101352.27;1755478;80;20963;-87
2022/11/15 03:50:21;;;;;;;90.42;48.00;;;;;;;7.62;77.48;101346.09;1768284;80;21041;-88
2022/11/15 03:52:48;;;;;;;81.15;45.73;;;;;;;7.62;77.48;101342.17;1743060;81;20982;-87
2022/11/15 03:55:19;;;;;;;90.45;46.15;;;;;;;7.61;77.38;101344.33;1700493;83;21004;-87
2022/11/15 03:57:46;;;;;;;87.50;47.13;;;;;;;7.56;77.45;101345.41;1764574;80;21798;-87
2022/11/15 04:00:14;;;;;;;89.77;48.85;;;;;;;7.57;77.63;101339.35;1751515;80;20972;-87
2022/11/15 04:02:40;;;;;;;87.30;47.80;;;;;;;7.63;77.73;101343.55;1748665;80;22028;-87
2022/11/15 04:05:07;;;;;;;84.22;44.93;;;;;;;7.65;77.62;101337.09;1746845;81;21828;-87
2022/11/15 04:07:34;;;;;;;90.62;47.23;;;;;;;7.68;77.69;101338.55;1745592;81;21022;-86
2022/11/15 04:10:05;;;;;;;91.40;48.73;;;;;;;7.66;77.64;101340.17;1761161;81;21776;-87
2022/11/15 04:12:36;;;;;;;85.60;44.73;;;;;;;7.68;77.67;101343.79;1741753;81;21461;-86
2022/11/15 04:15:09;;;;;;;90.40;48.58;;;;;;;7.68;77.61;101335.93;1763284;81;21066;-87
2022/11/15 04:17:47;;;;;;;91.28;48.30;;;;;;;7.66;77.68;101336.23;1747429;81;21006;-87
2022/11/15 04:25:56;;;;;;;80.65;44.95;;;;;;;7.59;77.86;101332.45;1763012;81;21022;-87
2022/11/15 04:28:23;;;;;;;78.75;45.48;;;;;;;7.58;77.76;101330.65;1758533;81;21065;-87
2022/11/15 04:30:50;;;;;;;90.20;45.50;;;;;;;7.58;77.81;101328.95;1751207;81;21011;-87
2022/11/15 04:33:16;;;;;;;80.32;45.15;;;;;;;7.57;77.79;101326.25;1763072;81;21396;-87
2022/11/15 04:35:43;;;;;;;79.03;44.13;;;;;;;7.57;77.80;101325.83;1750642;81;21675;-86
2022/11/15 04:38:10;;;;;;;88.10;44.95;;;;;;;7.52;77.76;101329.06;1758579;81;20980;-87
2022/11/15 04:40:37;;;;;;;83.10;45.65;;;;;;;7.52;77.93;101331.69;1752039;81;20956;-87
2022/11/15 04:43:04;;;;;;;81.02;44.45;;;;;;;7.53;78.03;101329.14;1738601;80;21019;-87
2022/11/15 04:45:31;;;;;;;81.02;45.03;;;;;;;7.56;78.08;101329.69;1741993;80;21007;-88
2022/11/15 04:47:57;;;;;;;86.80;45.65;;;;;;;7.59;78.12;101329.84;1743012;80;21734;-86
2022/11/15 04:50:24;;;;;;;85.07;46.98;;;;;;;7.59;78.12;101330.72;1737518;80;20987;-87
2022/11/15 04:52:53;;;;;;;88.97;47.27;;;;;;;7.61;78.16;101329.49;1714090;83;20987;-86
2022/11/15 04:55:19;;;;;;;92.85;47.30;;;;;;;7.64;78.18;101325.72;1746594;80;21789;-86
2022/11/15 04:57:46;;;;;;;84.92;45.67;;;;;;;7.69;78.32;101331.16;1744787;81;21043;-86
2022/11/15 05:00:15;;;;;;;89.05;45.80;;;;;;;7.72;78.24;101327.38;1695065;84;21678;-86
2022/11/15 05:05:27;;;;;;;80.90;43.15;;;;;;;7.77;78.22;101324.14;1771998;80;20968;-86
2022/11/15 05:07:53;;;;;;;78.07;41.77;;;;;;;7.80;78.13;101318.13;1770459;80;21018;-85
2022/11/15 05:10:20;;;;;;;71.87;40.28;;;;;;;7.76;78.01;101314.47;1730932;81;20989;-86
2022/11/15 05:12:47;;;;;;;77.42;40.33;;;;;;;7.74;78.00;101306.06;1728939;81;21722;-86
2022/11/15 05:15:14;;;;;;;76.90;40.23;;;;;;;7.72;77.95;101302.48;1734978;81;21909;-86
2022/11/15 05:17:41;;;;;;;76.50;41.33;;;;;;;7.73;77.95;101310.42;1724243;81;21071;-86
2022/11/15 05:20:08;;;;;;;73.83;40.90;;;;;;;7.71;77.90;101299.36;1725251;81;21017;-86
2022/11/15 05:22:35;;;;;;;72.90;40.40;;;;;;;7.67;77.92;101296.12;1718333;81;20989;-86
2022/11/15 05:25:02;;;;;;;79.75;43.50;;;;;;;7.64;77.90;101300.83;1720718;81;21655;-89
2022/11/15 05:27:28;;;;;;;79.60;43.87;;;;;;;7.59;77.92;101296.66;1733182;81;20988;-87
2022/11/15 05:29:55;;;;;;;74.60;40.88;;;;;;;7.58;78.05;101296.20;1731407;81;21023;-89
2022/11/15 05:32:21;;;;;;;73.47;40.98;;;;;;;7.57;78.02;101300.94;1723948;81;21612;-85
2022/11/15 05:34:48;;;;;;;73.95;41.58;;;;;;;7.57;78.18;101307.49;1736352;81;21027;-85
2022/11/15 05:37:15;;;;;;;69.85;40.88;;;;;;;7.59;78.14;101314.12;1704249;81;21917;-84
2022/11/15 05:39:42;;;;;;;64.40;37.33;;;;;;;7.60;78.13;101311.97;1728149;81;21382;-84
2022/11/15 05:42:14;;;;;;;66.47;37.23;;;;;;;7.59;78.16;101312.81;1733568;81;21071;-85
2022/11/15 05:44:44;;;;;;;74.47;40.25;;;;;;;7.61;78.22;101315.08;1705757;82;21055;-84
2022/11/15 05:47:15;;;;;;;76.40;41.70;;;;;;;7.63;78.22;101310.81;1700585;81;21072;-85
2022/11/15 05:49:42;;;;;;;71.85;38.85;;;;;;;7.63;78.17;101308.19;1720904;81;21903;-85
2022/11/15 05:52:10;;;;;;;63.60;35.95;;;;;;;7.66;78.25;101303.48;1731694;81;21062;-85
2022/11/15 05:54:36;;;;;;;68.72;38.38;;;;;;;7.70;78.37;101305.03;1770078;79;21860;-84
2022/11/15 05:57:03;;;;;;;69.05;39.30;;;;;;;7.71;78.20;101313.77;1767172;80;21019;-84
2022/11/15 05:59:30;;;;;;;73.17;40.30;;;;;;;7.68;78.22;101313.23;1729917;81;21034;-84
2022/11/15 06:01:57;;;;;;;74.17;40.88;;;;;;;7.68;78.18;101309.72;1731510;81;21685;-84
2022/11/15 06:04:24;;;;;;;73.00;39.75;;;;;;;7.65;78.21;101306.95;1730013;81;21032;-85
2022/11/15 06:06:51;;;;;;;69.90;38.88;;;;;;;7.64;78.29;101313.00;1720362;81;21085;-85
2022/11/15 06:09:17;;;;;;;72.40;38.75;;;;;;;7.67;78.37;101315.36;1720479;81;21375;-85
2022/11/15 06:11:44;;;;;;;74.50;39.75;;;;;;;7.66;78.26;101307.42;1718394;81;21902;-85
2022/11/15 06:14:11;;;;;;;74.22;40.50;;;;;;;7.67;78.44;101310.54;1727742;81;23472;-85
2022/11/15 06:16:38;;;;;;;70.40;39.83;;;;;;;7.68;78.48;101314.55;1729538;81;20972;-85
2022/11/15 06:19:06;;;;;;;64.62;34.63;;;;;;;7.69;78.45;101315.43;1728372;81;21016;-85
2022/11/15 06:21:32;;;;;;;57.17;34.18;;;;;;;7.70;78.50;101317.23;1701274;81;21152;-85
2022/11/15 06:23:59;;;;;;;61.25;35.70;;;;;;;7.73;78.34;101317.36;1726523;81;20989;-85
2022/11/15 06:26:26;;;;;;;69.35;39.88;;;;;;;7.70;78.18;101317.23;1770415;80;21708;-85
2022/11/15 06:28:52;;;;;;;62.93;37.30;;;;;;;7.65;78.22;101314.39;1756729;80;21003;-85
2022/11/15 06:31:19;;;;;;;67.15;38.40;;;;;;;7.61;78.16;101322.05;1760400;80;21007;-85
2022/11/15 06:33:47;;;;;;;64.82;38.00;;;;;;;7.57;78.29;101314.04;1729837;81;21321;-85
2022/11/15 06:36:15;;;;;;;64.00;36.40;;;;;;;7.60;78.45;101308.03;1727479;81;20999;-85
2022/11/15 06:38:41;;;;;;;63.23;36.90;;;;;;;7.63;78.48;101309.92;1725829;81;21773;-85
2022/11/15 06:41:09;;;;;;;66.57;37.48;;;;;;;7.65;78.42;101306.95;1724534;81;20982;-85
2022/11/15 06:43:36;;;;;;;61.28;34.55;;;;;;;7.67;78.58;101310.54;1728691;81;21573;-85
2022/11/15 06:46:03;;;;;;;66.60;36.98;;;;;;;7.70;78.58;101314.20;1729995;81;21357;-85
2022/11/15 06:48:30;;;;;;;67.92;39.53;;;;;;;7.75;78.49;101311.77;1736936;81;21102;-85
2022/11/15 06:50:58;;;;;;;263.57;117.95;;;;;;;7.73;78.42;101316.05;1725658;81;21728;-85
2022/11/15 06:53:25;;;;;;;85.60;46.70;;;;;;;7.74;78.42;101312.61;1722513;81;21013;-85
2022/11/15 06:55:51;;;;;;;65.15;38.10;;;;;;;7.77;78.38;101310.11;1725302;81;21027;-85
2022/11/15 06:58:21;;;;;;;50.83;31.45;;;;;;;7.78;78.29;101309.30;1729277;81;20967;-85
2022/11/15 07:00:47;;;;;;;46.85;30.62;;;;;;;7.82;78.39;101316.47;1727578;81;21028;-85
2022/11/15 07:03:14;;;;;;;46.77;28.12;;;;;;;7.87;78.27;101312.34;1733352;80;21684;-85
2022/11/15 07:05:41;;;;;;;47.48;28.70;;;;;;;7.88;78.10;101314.53;1728879;81;21003;-84
2022/11/15 07:08:07;;;;;;;43.63;28.32;;;;;;;7.86;77.98;101324.95;1723848;81;21040;-84
2022/11/15 07:10:34;;;;;;;40.85;27.37;;;;;;;7.88;78.04;101324.63;1714910;81;21006;-84
2022/11/15 07:13:01;;;;;;;41.00;26.52;;;;;;;7.90;77.97;101321.66;1724327;81;21031;-86
2022/11/15 07:15:28;;;;;;;45.92;28.32;;;;;;;7.92;77.74;101316.07;1735169;81;21845;-86
2022/11/15 07:17:54;;;;;;;41.53;26.60;;;;;;;7.87;77.75;101314.96;1727878;81;21568;-86
2022/11/15 07:20:21;;;;;;;42.60;28.12;;;;;;;7.93;77.92;101315.22;1732278;81;20983;-86
2022/11/15 07:22:48;;;;;;;42.70;27.25;;;;;;;7.98;77.80;101318.06;1722890;81;20962;-86
2022/11/15 07:25:15;;;;;;;45.40;27.93;;;;;;;8.01;77.81;101326.47;1723457;81;20989;-86
2022/11/15 07:27:41;;;;;;;44.77;30.70;;;;;;;8.04;77.74;101323.58;1730611;81;22765;-86
2022/11/15 07:30:09;;;;;;;49.70;30.23;;;;;;;8.10;77.74;101328.20;1737033;81;21549;-86
2022/11/15 07:32:36;;;;;;;42.62;27.87;;;;;;;8.12;77.69;101325.22;1724174;81;21043;-86
2022/11/15 07:35:03;;;;;;;49.38;29.40;;;;;;;8.16;77.63;101317.97;1732369;81;21003;-87
2022/11/15 07:37:30;;;;;;;57.45;36.73;;;;;;;8.19;77.58;101318.11;1727778;81;20989;-86
2022/11/15 07:39:57;;;;;;;70.12;45.98;;;;;;;8.21;77.46;101319.50;1731166;81;21867;-88
2022/11/15 07:45:09;;;;;;;55.28;34.90;;;;;;;8.16;77.14;101314.03;1727305;81;21446;-88
2022/11/15 07:47:36;;;;;;;44.27;28.07;;;;;;;7.95;77.19;101286.04;1733546;81;21043;-88
2022/11/15 07:50:03;;;;;;;46.65;28.40;;;;;;;8.13;77.30;101312.19;1734125;81;21964;-88
2022/11/15 07:52:29;;;;;;;42.67;27.37;;;;;;;8.16;77.30;101308.40;1727497;81;21920;-87
2022/11/15 07:54:56;;;;;;;39.83;26.68;;;;;;;8.15;77.17;101309.63;1737463;81;21338;-88
2022/11/15 07:57:26;;;;;;;40.33;27.48;;;;;;;8.15;77.16;101308.33;1720770;81;21015;-88
2022/11/15 07:59:52;;;;;;;52.35;34.92;;;;;;;8.18;77.23;101312.38;1725471;81;20994;-88
2022/11/15 08:02:19;;;;;;;58.80;43.63;;;;;;;8.21;77.23;101309.89;1720835;81;20992;-88
2022/11/15 08:04:46;;;;;;;61.83;44.58;;;;;;;8.24;77.03;101318.30;1723014;81;21726;-88
2022/11/15 08:07:13;;;;;;;69.65;50.12;;;;;;;8.19;77.02;101318.11;1727314;81;21842;-88
2022/11/15 08:09:39;;;;;;;53.13;36.00;;;;;;;8.18;76.85;101311.06;1768428;80;20976;-88
2022/11/15 08:12:06;;;;;;;47.48;30.15;;;;;;;8.16;76.98;101304.47;1759560;80;20976;-88
2022/11/15 08:14:34;;;;;;;45.08;29.75;;;;;;;8.20;77.08;101317.27;1765041;80;21026;-88
2022/11/15 08:17:01;;;;;;;43.55;29.45;;;;;;;8.22;76.83;101314.72;1746381;81;21766;-88
2022/11/15 08:19:27;;;;;;;41.75;26.12;;;;;;;8.22;76.82;101316.95;1761948;80;21007;-88
2022/11/15 08:21:54;;;;;;;41.18;26.45;;;;;;;8.24;76.82;101315.67;1735391;81;21065;-87
2022/11/15 08:24:21;;;;;;;40.33;26.23;;;;;;;8.28;76.92;101324.19;1727972;81;20938;-88
2022/11/15 08:26:47;;;;;;;43.58;30.23;;;;;;;8.34;76.92;101327.95;1728495;81;21053;-88
2022/11/15 08:29:16;;;;;;;55.75;37.90;;;;;;;8.40;76.84;101329.94;1729216;81;20999;-88
2022/11/15 08:31:43;;;;;;;46.15;31.27;;;;;;;8.44;76.81;101321.83;1739754;82;20967;-88
2022/11/15 08:34:09;;;;;;;41.23;27.25;;;;;;;8.46;76.77;101318.42;1765851;79;21011;-88
2022/11/15 08:36:36;;;;;;;40.58;27.42;;;;;;;8.49;76.69;101309.81;1738109;82;21503;-88
2022/11/15 08:39:02;;;;;;;42.25;25.90;;;;;;;8.47;76.59;101311.05;1760763;79;20942;-88
2022/11/15 08:41:35;;;;;;;39.35;26.00;;;;;;;8.48;76.47;101316.76;1742758;81;21729;-88
2022/11/15 08:44:02;;;;;;;41.15;28.20;;;;;;;8.47;76.31;101320.23;1735473;81;20921;-87
2022/11/15 08:46:29;;;;;;;46.18;31.55;;;;;;;8.46;76.40;101320.16;1727839;81;21001;-88
2022/11/15 08:48:55;;;;;;;50.58;33.45;;;;;;;8.43;76.37;101316.08;1724555;81;21038;-88
2022/11/15 08:51:22;;;;;;;43.08;29.77;;;;;;;8.43;76.33;101313.46;1735606;81;20990;-89
2022/11/15 08:53:49;;;;;;;44.80;30.68;;;;;;;8.41;76.29;101316.41;1727752;81;21742;-89
2022/11/15 08:56:15;;;;;;;42.20;28.45;;;;;;;8.37;76.27;101317.99;1729700;81;20940;-88
2022/11/15 08:58:46;;;;;;;43.23;29.10;;;;;;;8.34;76.15;101315.27;1727711;81;21047;-88
2022/11/15 09:01:19;;;;;;;43.13;28.60;;;;;;;8.30;76.26;101311.61;1734644;81;22040;-88
2022/11/15 09:03:45;;;;;;;34.73;25.55;;;;;;;8.30;76.11;101312.91;1733604;81;21003;-88
2022/11/15 09:06:12;;;;;;;43.30;27.93;;;;;;;8.31;76.31;101313.80;1718081;81;21737;-88
2022/11/15 09:08:39;;;;;;;42.62;27.62;;;;;;;8.38;76.50;101308.88;1770221;79;21089;-88
2022/11/15 09:11:06;;;;;;;41.05;27.15;;;;;;;8.43;76.50;101309.13;1762777;79;21765;-88
2022/11/15 09:13:33;;;;;;;40.10;26.60;;;;;;;8.47;76.48;101303.60;1764592;80;21007;-87
2022/11/15 09:16:01;;;;;;;42.90;27.82;;;;;;;8.50;76.41;101299.78;1720259;82;21090;-88
2022/11/15 09:18:27;;;;;;;52.15;36.17;;;;;;;8.52;76.37;101305.98;1690315;83;21754;-87
2022/11/15 09:21:16;;;;;;;50.03;33.05;;;;;;;8.50;76.29;101298.07;1701461;83;21417;-89
2022/11/15 09:23:44;;;;;;;52.25;34.50;;;;;;;8.44;76.10;101306.97;1766409;80;21125;-89
2022/11/15 09:26:26;;;;;;;69.47;45.98;;;;;;;8.40;76.12;101308.95;1766326;80;21390;-90
2022/11/15 09:28:53;;;;;;;137.70;85.28;;;;;;;8.37;76.16;101303.56;1774934;79;21113;-88
2022/11/15 09:31:41;;;;;;;109.67;64.87;;;;;;;8.37;76.31;101308.42;1768762;79;22619;-88
2022/11/15 09:33:54;;;;;;;160.00;100.38;;;;;;;8.38;76.24;101308.88;1745101;80;21027;-88
2022/11/15 09:36:21;;;;;;;65.08;42.00;;;;;;;8.41;76.16;101311.16;1761963;79;21611;-88
2022/11/15 09:38:48;;;;;;;79.80;47.48;;;;;;;8.36;76.13;101305.73;1764896;80;21871;-89
2022/11/15 09:41:50;;;;;;;108.63;62.15;;;;;;;8.36;76.09;101310.97;1758721;80;21658;-88
2022/11/15 09:44:37;;;;;;;98.47;58.65;;;;;;;8.32;76.05;101306.01;1701160;82;21764;-88
2022/11/15 09:47:47;;;;;;;97.62;58.10;;;;;;;8.35;76.05;101294.34;1679995;82;21031;-88
2022/11/15 09:50:23;;;;;;;65.72;39.45;;;;;;;8.36;75.96;101300.05;1719567;82;21095;-88
2022/11/15 09:52:49;;;;;;;88.00;52.48;;;;;;;8.36;76.01;101301.37;1714100;82;20979;-88
2022/11/15 09:55:21;;;;;;;145.45;78.85;;;;;;;8.40;75.98;101304.14;1712761;82;21001;-89
2022/11/15 09:58:07;;;;;;;55.25;34.80;;;;;;;8.42;76.06;101300.77;1712127;82;21456;-88
2022/11/15 10:03:21;;;;;;;38.73;26.33;;;;;;;8.48;75.70;101290.95;1702360;82;20983;-89
2022/11/15 10:05:48;;;;;;;38.10;25.70;;;;;;;8.49;75.89;101286.20;1723835;81;21024;-88
2022/11/15 10:08:41;;;;;;;36.68;24.75;;;;;;;8.53;75.79;101285.06;1763008;79;21019;-88
2022/11/15 10:11:27;;;;;;;57.13;33.13;;;;;;;8.56;75.83;101277.75;1702889;83;21730;-88
2022/11/15 10:14:51;;;;;;;40.65;26.35;;;;;;;8.58;75.74;101278.71;1763305;79;20956;-88
2022/11/15 10:17:50;;;;;;;281.50;102.40;;;;;;;8.60;75.72;101277.47;1759975;80;21037;-88
2022/11/15 10:20:22;;;;;;;114.22;47.75;;;;;;;8.65;75.70;101273.28;1766212;80;21548;-89
2022/11/15 10:23:09;;;;;;;44.70;26.65;;;;;;;8.63;75.62;101267.08;1765002;80;20956;-88
2022/11/15 10:25:41;;;;;;;39.38;24.70;;;;;;;8.59;75.36;101263.85;1763593;79;21715;-89
2022/11/15 10:28:36;;;;;;;37.25;24.40;;;;;;;8.58;75.45;101265.59;1758928;79;20966;-88
2022/11/15 10:31:04;;;;;;;40.05;25.95;;;;;;;8.57;75.27;101258.53;1758467;79;20981;-87
2022/11/15 10:33:50;;;;;;;41.25;27.95;;;;;;;8.50;75.10;101254.78;1770789;80;21461;-90
2022/11/15 10:36:19;;;;;;;38.95;26.57;;;;;;;8.49;75.39;101258.65;1661593;84;21057;-89
2022/11/15 10:38:58;;;;;;;36.13;25.65;;;;;;;8.55;75.53;101257.16;1653298;84;21066;-89
2022/11/15 10:41:34;;;;;;;39.27;25.65;;;;;;;8.60;75.49;101255.16;1658350;84;21036;-89
2022/11/15 10:44:31;;;;;;;41.70;26.70;;;;;;;8.63;75.46;101256.16;1640116;86;20997;-88
2022/11/15 10:47:06;;;;;;;41.42;26.10;;;;;;;8.66;75.37;101257.61;1668849;84;21010;-89
2022/11/15 10:49:37;;;;;;;40.83;26.70;;;;;;;8.67;75.37;101256.78;1662363;84;21021;-89
2022/11/15 10:52:31;;;;;;;37.38;25.88;;;;;;;8.67;75.28;101259.41;1664509;85;21081;-89
2022/11/15 10:55:18;;;;;;;35.25;24.77;;;;;;;8.65;75.25;101261.47;1642851;85;21561;-88
2022/11/15 10:57:56;;;;;;;43.70;28.40;;;;;;;8.63;75.27;101256.58;1657455;84;27112;-87
2022/11/15 11:00:35;;;;;;;55.58;35.23;;;;;;;8.63;75.35;101257.47;1652778;86;21009;-88
2022/11/15 11:03:06;;;;;;;102.07;64.32;;;;;;;8.67;75.42;101255.48;1653556;84;21173;-88
2022/11/15 11:05:38;;;;;;;62.85;40.43;;;;;;;8.70;75.32;101259.94;1655322;85;21731;-89
2022/11/15 11:08:29;;;;;;;54.55;36.13;;;;;;;8.72;75.31;101253.02;1656303;85;21121;-89
2022/11/15 11:11:00;;;;;;;47.15;29.05;;;;;;;8.73;75.30;101261.39;1595181;88;21082;-89
2022/11/15 11:13:30;;;;;;;45.43;27.73;;;;;;;8.77;75.36;101256.73;1591931;88;21937;-87
2022/11/15 11:16:16;;;;;;;40.52;27.10;;;;;;;8.77;75.32;101254.11;1595809;88;21067;-88
2022/11/15 11:19:06;;;;;;;46.25;30.23;;;;;;;8.78;75.34;101253.26;1591646;88;21950;-87
2022/11/15 11:22:10;;;;;;;46.68;29.48;;;;;;;8.77;75.17;101253.23;1595843;88;21067;-88
2022/11/15 11:27:34;;;;;;;47.25;28.75;;;;;;;8.58;74.93;101243.68;1594161;88;21934;-88
2022/11/15 11:30:20;;;;;;;43.98;28.65;;;;;;;8.52;75.05;101248.26;1590832;88;21059;-88
2022/11/15 11:33:08;;;;;;;46.58;29.98;;;;;;;8.49;75.17;101249.04;1610860;87;21729;-87
2022/11/15 11:36:05;;;;;;;48.65;29.50;;;;;;;8.51;75.26;101250.42;1684990;83;20996;-88
2022/11/15 11:38:58;;;;;;;48.83;30.23;;;;;;;8.48;75.28;101249.86;1656115;83;21064;-88
2022/11/15 11:41:45;;;;;;;47.25;30.30;;;;;;;8.47;75.33;101243.27;1685157;83;21042;-88
2022/11/15 11:44:34;;;;;;;52.30;32.45;;;;;;;8.47;75.40;101245.88;1684062;83;21036;-88
2022/11/15 11:47:10;;;;;;;47.20;31.12;;;;;;;8.46;75.42;101248.90;1684132;83;22558;-87
2022/11/15 11:49:53;;;;;;;62.55;36.58;;;;;;;8.47;75.43;101240.64;1686489;83;20997;-87
2022/11/15 11:52:30;;;;;;;55.98;34.65;;;;;;;8.44;75.40;101234.83;1684648;83;21875;-88
2022/11/15 11:55:40;;;;;;;58.30;35.60;;;;;;;8.40;75.48;101232.00;1682625;83;21020;-87
2022/11/15 11:58:23;;;;;;;55.83;33.58;;;;;;;8.41;75.56;101230.75;1685101;83;21896;-87
2022/11/15 12:00:57;;;;;;;46.77;30.88;;;;;;;8.44;75.59;101228.70;1687835;83;25064;-87
2022/11/15 12:03:36;;;;;;;;;;;;;;;8.39;75.59;101229.80;1688095;85;21540;-88